createdAt,value
2023-02-14T00:01:22.573Z,81.60
2023-02-14T00:03:52.093Z,81.60
2023-02-14T00:06:20.099Z,81.70
2023-02-14T00:08:48.024Z,83.50
2023-02-14T00:11:18.710Z,81.70
2023-02-14T00:14:05.658Z,81.30
2023-02-14T00:16:33.793Z,81.60
2023-02-14T00:19:05.943Z,82.30
2023-02-14T00:21:35.952Z,81.70
2023-02-14T00:24:06.356Z,81.80
2023-02-14T00:26:34.372Z,81.40
2023-02-14T00:29:02.867Z,81.80
2023-02-14T00:31:30.946Z,81.70
2023-02-14T00:33:58.873Z,81.80
2023-02-14T00:36:28.365Z,81.60
2023-02-14T00:38:56.192Z,82.70
2023-02-14T00:41:24.161Z,81.90
2023-02-14T00:43:53.872Z,81.90
2023-02-14T00:46:23.281Z,82.00
2023-02-14T00:48:51.231Z,81.90
2023-02-14T00:51:20.123Z,82.00
2023-02-14T00:53:50.414Z,82.20
2023-02-14T00:56:18.964Z,82.40
2023-02-14T00:58:47.168Z,82.50
2023-02-14T01:01:17.194Z,82.40
2023-02-14T01:03:45.258Z,82.70
2023-02-14T01:06:13.679Z,82.70
2023-02-14T01:08:41.480Z,82.70
2023-02-14T01:11:14.450Z,82.70
2023-02-14T01:13:43.293Z,82.90
2023-02-14T01:16:13.796Z,82.90
2023-02-14T01:18:42.971Z,82.90
2023-02-14T01:21:13.698Z,82.90
2023-02-14T01:23:41.551Z,82.80
2023-02-14T01:26:11.453Z,82.50
2023-02-14T01:28:39.740Z,82.60
2023-02-14T01:31:10.056Z,82.30
2023-02-14T01:33:38.257Z,82.50
2023-02-14T01:36:06.890Z,82.30
2023-02-14T01:38:34.991Z,81.80
2023-02-14T01:41:02.841Z,82.00
2023-02-14T01:43:32.260Z,82.10
2023-02-14T01:46:00.168Z,82.30
2023-02-14T01:48:28.062Z,82.60
2023-02-14T01:50:56.026Z,82.70
2023-02-14T01:53:28.419Z,83.00
2023-02-14T01:56:01.010Z,83.10
2023-02-14T01:58:34.956Z,83.30
2023-02-14T02:01:04.122Z,83.30
2023-02-14T02:03:35.623Z,83.20
2023-02-14T02:06:11.319Z,83.20
2023-02-14T02:08:44.688Z,83.20
2023-02-14T02:11:12.504Z,83.10
2023-02-14T02:13:41.657Z,83.00
2023-02-14T02:16:33.867Z,82.80
2023-02-14T02:19:22.922Z,83.00
2023-02-14T02:22:13.799Z,81.30
2023-02-14T02:24:52.926Z,83.00
2023-02-14T02:27:33.948Z,83.10
2023-02-14T02:30:37.634Z,83.20
2023-02-14T02:33:44.625Z,83.40
2023-02-14T02:36:44.666Z,83.80
2023-02-14T02:39:22.899Z,84.10
2023-02-14T02:42:06.641Z,84.10
2023-02-14T02:44:43.745Z,85.80
2023-02-14T02:47:23.410Z,84.20
2023-02-14T02:50:18.559Z,83.80
2023-02-14T02:53:07.075Z,84.40
2023-02-14T02:56:02.612Z,84.40
2023-02-14T02:58:34.374Z,84.60
2023-02-14T03:01:07.758Z,84.50
2023-02-14T03:03:54.128Z,84.50
2023-02-14T03:06:22.235Z,84.70
2023-02-14T03:08:51.499Z,84.60
2023-02-14T03:11:19.747Z,84.80
2023-02-14T03:14:01.065Z,84.90
2023-02-14T03:16:35.342Z,84.90
2023-02-14T03:20:00.422Z,84.60
2023-02-14T03:22:38.773Z,84.30
2023-02-14T03:25:18.161Z,83.90
2023-02-14T03:27:48.857Z,83.90
2023-02-14T03:30:26.787Z,83.60
2023-02-14T03:33:02.491Z,84.60
2023-02-14T03:35:37.368Z,83.80
2023-02-14T03:38:09.966Z,84.50
2023-02-14T03:40:42.891Z,83.90
2023-02-14T03:43:13.994Z,84.00
2023-02-14T03:45:47.249Z,83.90
2023-02-14T03:48:17.630Z,83.90
2023-02-14T03:50:49.192Z,83.90
2023-02-14T03:53:22.271Z,84.60
2023-02-14T03:55:56.994Z,84.20
2023-02-14T03:58:29.299Z,84.40
2023-02-14T04:01:05.588Z,84.40
2023-02-14T04:03:35.916Z,84.50
2023-02-14T04:06:03.889Z,84.50
2023-02-14T04:08:32.546Z,84.30
2023-02-14T04:11:03.896Z,84.30
2023-02-14T04:13:32.044Z,84.50
2023-02-14T04:15:59.933Z,84.40
2023-02-14T04:18:45.628Z,84.10
2023-02-14T04:21:15.548Z,84.20
2023-02-14T04:23:43.421Z,84.10
2023-02-14T04:26:12.610Z,84.10
2023-02-14T04:28:40.654Z,84.20
2023-02-14T04:31:10.371Z,84.20
2023-02-14T04:33:39.268Z,84.30
2023-02-14T04:36:07.771Z,84.20
2023-02-14T04:38:35.841Z,84.20
2023-02-14T04:41:03.781Z,84.20
2023-02-14T04:43:32.913Z,84.10
2023-02-14T04:46:00.781Z,84.00
2023-02-14T04:48:28.740Z,83.90
2023-02-14T04:50:56.766Z,83.90
2023-02-14T04:53:24.764Z,84.00
2023-02-14T04:55:52.750Z,83.80
2023-02-14T04:58:20.634Z,84.00
2023-02-14T05:00:49.897Z,83.90
2023-02-14T05:03:18.044Z,84.10
2023-02-14T05:05:45.859Z,84.20
2023-02-14T05:08:14.844Z,84.20
2023-02-14T05:10:42.779Z,84.40
2023-02-14T05:13:10.579Z,84.30
2023-02-14T05:15:38.770Z,84.50
2023-02-14T05:18:08.108Z,84.70
2023-02-14T05:20:35.910Z,84.50
2023-02-14T05:23:05.306Z,84.60
2023-02-14T05:25:33.306Z,84.60
2023-02-14T05:28:01.112Z,84.60
2023-02-14T05:30:30.216Z,84.60
2023-02-14T05:32:58.362Z,84.60
2023-02-14T05:35:27.672Z,84.60
2023-02-14T05:37:55.494Z,84.60
2023-02-14T05:40:26.382Z,86.30
2023-02-14T05:42:54.639Z,84.70
2023-02-14T05:45:23.203Z,85.00
2023-02-14T05:47:51.442Z,84.90
2023-02-14T05:50:20.256Z,84.80
2023-02-14T05:52:49.518Z,84.70
2023-02-14T05:55:17.382Z,86.60
2023-02-14T05:57:45.566Z,84.30
2023-02-14T06:00:14.807Z,84.10
2023-02-14T06:02:42.664Z,84.10
2023-02-14T06:05:10.569Z,84.00
2023-02-14T06:07:38.383Z,84.20
2023-02-14T06:10:11.407Z,84.20
2023-02-14T06:12:39.277Z,84.20
2023-02-14T06:15:07.850Z,85.80
2023-02-14T06:17:35.667Z,84.20
2023-02-14T06:20:05.887Z,84.30
2023-02-14T06:22:33.953Z,84.30
2023-02-14T06:25:01.860Z,84.30
2023-02-14T06:27:31.964Z,84.50
2023-02-14T06:30:00.584Z,84.60
2023-02-14T06:32:28.527Z,84.70
2023-02-14T06:34:56.367Z,85.30
2023-02-14T06:37:24.308Z,84.50
2023-02-14T06:39:52.351Z,84.50
2023-02-14T06:42:20.479Z,84.10
2023-02-14T06:44:49.626Z,84.60
2023-02-14T06:47:17.595Z,86.50
2023-02-14T06:49:45.798Z,84.60
2023-02-14T06:52:13.800Z,84.60
2023-02-14T06:54:42.255Z,84.60
2023-02-14T06:57:10.092Z,84.50
2023-02-14T06:59:37.967Z,84.80
2023-02-14T07:02:07.731Z,84.50
2023-02-14T07:04:35.572Z,84.50
2023-02-14T07:07:06.107Z,84.70
2023-02-14T07:09:34.195Z,86.90
2023-02-14T07:12:02.042Z,84.50
2023-02-14T07:14:29.835Z,84.80
2023-02-14T07:16:57.641Z,84.80
2023-02-14T07:19:27.073Z,84.60
2023-02-14T07:21:54.916Z,84.60
2023-02-14T07:24:22.833Z,84.60
2023-02-14T07:26:50.848Z,84.80
2023-02-14T07:29:18.767Z,84.80
2023-02-14T07:31:47.031Z,84.80
2023-02-14T07:34:15.064Z,84.50
2023-02-14T07:36:44.635Z,85.00
2023-02-14T07:39:12.530Z,85.30
2023-02-14T07:41:40.506Z,85.40
2023-02-14T07:44:08.337Z,85.60
2023-02-14T07:46:36.250Z,85.70
2023-02-14T07:49:07.196Z,85.80
2023-02-14T07:51:35.061Z,85.90
2023-02-14T07:54:06.886Z,85.80
2023-02-14T07:56:34.818Z,85.80
2023-02-14T07:59:02.756Z,85.90
2023-02-14T08:01:30.788Z,86.00
2023-02-14T08:03:58.732Z,86.10
2023-02-14T08:06:27.882Z,86.10
2023-02-14T08:08:55.789Z,86.40
2023-02-14T08:11:42.574Z,86.40
2023-02-14T08:14:10.393Z,86.50
2023-02-14T08:16:39.867Z,86.50
2023-02-14T08:19:07.800Z,86.80
2023-02-14T08:21:35.701Z,86.80
2023-02-14T08:24:03.832Z,87.10
2023-02-14T08:26:33.434Z,87.20
2023-02-14T08:29:02.969Z,87.70
2023-02-14T08:31:35.930Z,88.00
2023-02-14T08:34:05.216Z,88.50
2023-02-14T08:36:33.392Z,88.70
2023-02-14T08:39:01.287Z,89.10
2023-02-14T08:41:29.143Z,89.50
2023-02-14T08:43:58.349Z,90.00
2023-02-14T08:46:26.424Z,90.10
2023-02-14T08:48:54.867Z,90.20
2023-02-14T08:51:23.716Z,90.40
2023-02-14T08:53:52.176Z,90.30
2023-02-14T08:56:22.575Z,90.60
2023-02-14T08:58:54.436Z,90.60
2023-02-14T09:01:23.997Z,90.80
2023-02-14T09:03:51.909Z,90.80
2023-02-14T09:06:19.776Z,90.90
2023-02-14T09:08:47.801Z,91.00
2023-02-14T09:11:18.608Z,91.20
2023-02-14T09:13:48.200Z,91.20
2023-02-14T09:16:18.793Z,91.30
2023-02-14T09:18:48.943Z,91.50
2023-02-14T09:21:19.077Z,91.50
2023-02-14T09:23:49.905Z,91.70
2023-02-14T09:26:18.359Z,91.80
2023-02-14T09:28:46.980Z,92.00
2023-02-14T09:31:17.761Z,92.10
2023-02-14T09:33:49.105Z,92.40
2023-02-14T09:36:22.938Z,92.50
2023-02-14T09:38:50.912Z,92.50
2023-02-14T09:41:48.857Z,92.70
2023-02-14T09:44:27.362Z,92.90
2023-02-14T09:47:00.208Z,92.90
2023-02-14T09:49:34.992Z,92.80
2023-02-14T09:52:05.796Z,92.80
2023-02-14T09:54:35.952Z,92.70
2023-02-14T09:57:09.801Z,92.80
2023-02-14T09:59:46.867Z,92.70
2023-02-14T10:02:33.270Z,93.00
2023-02-14T10:05:13.956Z,92.70
2023-02-14T10:08:01.094Z,92.50
2023-02-14T10:10:33.143Z,92.50
2023-02-14T10:13:08.465Z,92.40
2023-02-14T10:15:40.951Z,92.20
2023-02-14T10:18:13.710Z,92.00
2023-02-14T10:20:46.929Z,91.90
2023-02-14T10:23:28.317Z,91.30
2023-02-14T10:26:00.649Z,91.30
2023-02-14T10:28:33.772Z,91.10
2023-02-14T10:31:16.234Z,90.90
2023-02-14T10:33:52.041Z,90.90
2023-02-14T10:36:35.877Z,90.90
2023-02-14T10:39:16.114Z,90.70
2023-02-14T10:41:51.164Z,90.60
2023-02-14T10:44:38.680Z,90.50
2023-02-14T10:47:15.882Z,90.50
2023-02-14T10:49:50.514Z,90.40
2023-02-14T10:52:28.139Z,90.20
2023-02-14T10:54:58.081Z,90.10
2023-02-14T10:57:30.308Z,90.00
2023-02-14T11:00:01.260Z,89.60
2023-02-14T11:02:33.563Z,89.60
2023-02-14T11:05:05.643Z,89.70
2023-02-14T11:07:35.203Z,89.70
2023-02-14T11:10:03.406Z,89.30
2023-02-14T11:12:38.104Z,89.00
2023-02-14T11:15:21.105Z,88.60
2023-02-14T11:17:49.543Z,88.50
2023-02-14T11:20:27.742Z,88.00
2023-02-14T11:22:57.173Z,87.70
2023-02-14T11:25:26.877Z,87.40
2023-02-14T11:28:00.264Z,87.70
2023-02-14T11:30:32.469Z,87.60
2023-02-14T11:33:00.872Z,87.50
2023-02-14T11:35:36.112Z,87.20
2023-02-14T11:38:08.453Z,86.90
2023-02-14T11:40:38.834Z,86.50
2023-02-14T11:43:20.888Z,86.20
2023-02-14T11:45:49.896Z,86.30
2023-02-14T11:48:31.399Z,86.30
2023-02-14T15:43:14.894Z,74.30
2023-02-14T15:45:44.919Z,73.50
2023-02-14T15:48:17.821Z,73.20
2023-02-14T15:50:49.778Z,71.20
2023-02-14T15:53:35.041Z,70.10
2023-02-14T15:56:07.240Z,69.70
2023-02-14T15:58:39.291Z,69.40
2023-02-14T16:01:08.542Z,68.90
2023-02-14T16:03:39.958Z,69.20
2023-02-14T16:06:08.064Z,68.60
2023-02-14T16:08:37.421Z,69.30
2023-02-14T16:11:16.720Z,69.80
2023-02-14T16:13:47.585Z,68.80
2023-02-14T16:16:16.836Z,69.10
2023-02-14T16:18:47.541Z,68.60
2023-02-14T16:21:18.947Z,69.40
2023-02-14T16:23:48.652Z,69.30
2023-02-14T16:26:16.497Z,69.70
2023-02-14T16:28:45.730Z,69.10
2023-02-14T16:31:17.346Z,69.60
2023-02-14T16:33:47.893Z,69.80
2023-02-14T16:36:22.613Z,69.80
2023-02-14T16:38:51.230Z,70.20
2023-02-14T16:41:21.460Z,70.40
2023-02-14T16:43:51.180Z,70.80
2023-02-14T16:46:22.298Z,71.20
2023-02-14T16:48:52.236Z,71.70
2023-02-14T16:51:22.226Z,71.60
2023-02-14T16:53:50.886Z,71.60
2023-02-14T16:56:22.210Z,71.90
2023-02-14T16:58:51.422Z,72.10
2023-02-14T17:01:19.328Z,72.50
2023-02-14T17:03:47.656Z,72.40
2023-02-14T17:06:19.711Z,72.90
2023-02-14T17:08:49.769Z,73.00
2023-02-14T17:11:18.084Z,73.40
2023-02-14T17:13:47.714Z,72.60
2023-02-14T17:16:18.240Z,72.30
2023-02-14T17:18:50.197Z,72.60
2023-02-14T17:21:20.998Z,72.80
2023-02-14T17:23:48.791Z,72.90
2023-02-14T17:26:18.165Z,73.00
2023-02-14T17:28:47.259Z,72.90
2023-02-14T17:31:16.626Z,72.90
2023-02-14T17:33:44.708Z,72.90
2023-02-14T17:36:14.848Z,73.50
2023-02-14T17:38:43.389Z,73.70
2023-02-14T17:41:16.882Z,73.70
2023-02-14T17:43:44.815Z,73.40
2023-02-14T17:46:14.760Z,73.60
2023-02-14T17:48:45.593Z,73.90
2023-02-14T17:51:15.912Z,73.80
2023-02-14T17:53:43.923Z,74.30
2023-02-14T17:56:13.901Z,73.50
2023-02-14T17:58:42.162Z,73.90
2023-02-14T18:01:12.312Z,74.00
2023-02-14T18:03:41.078Z,74.00
2023-02-14T18:06:11.939Z,74.30
2023-02-14T18:08:46.113Z,74.40
2023-02-14T18:11:15.094Z,74.60
2023-02-14T18:13:43.152Z,74.70
2023-02-14T18:16:12.548Z,74.50
2023-02-14T18:18:41.248Z,74.60
2023-02-14T18:21:12.518Z,74.70
2023-02-14T18:23:40.422Z,75.00
2023-02-14T18:26:11.946Z,75.10
2023-02-14T18:28:40.038Z,75.00
2023-02-14T18:31:10.147Z,74.90
2023-02-14T18:33:38.788Z,75.30
2023-02-14T18:36:12.094Z,75.20
2023-02-14T18:38:40.425Z,75.30
2023-02-14T18:41:10.471Z,75.30
2023-02-14T18:43:40.922Z,75.30
2023-02-14T18:46:10.398Z,75.40
2023-02-14T18:48:38.354Z,75.30
2023-02-14T18:51:08.681Z,75.40
2023-02-14T18:53:38.266Z,75.40
2023-02-14T18:56:12.040Z,75.30
2023-02-14T18:58:41.327Z,75.10
2023-02-14T19:01:10.119Z,75.50
2023-02-14T19:03:38.368Z,75.50
2023-02-14T19:06:07.318Z,75.70
2023-02-14T19:08:37.772Z,75.70
2023-02-14T19:11:10.724Z,76.00
2023-02-14T19:13:38.740Z,76.00
2023-02-14T19:16:11.563Z,76.00
2023-02-14T19:18:39.800Z,76.00
2023-02-14T19:21:12.414Z,76.00
2023-02-14T19:23:42.403Z,76.00
2023-02-14T19:26:11.669Z,75.90
2023-02-14T19:28:39.564Z,76.20
2023-02-14T19:31:08.104Z,76.20
2023-02-14T19:33:38.941Z,76.30
2023-02-14T19:36:11.560Z,76.40
2023-02-14T19:38:41.593Z,76.60
2023-02-14T19:41:16.529Z,76.50
2023-02-14T19:43:45.714Z,76.50
2023-02-14T19:46:13.892Z,76.60
2023-02-14T19:48:41.948Z,76.50
2023-02-14T19:51:14.839Z,77.20
2023-02-14T19:53:44.588Z,76.60
2023-02-14T19:56:12.945Z,76.00
2023-02-14T19:58:40.964Z,76.00
2023-02-14T20:01:15.071Z,76.10
2023-02-14T20:03:43.011Z,76.40
2023-02-14T20:06:10.915Z,76.10
2023-02-14T20:08:38.800Z,76.10
2023-02-14T20:11:08.037Z,76.30
2023-02-14T20:13:35.929Z,76.50
2023-02-14T20:16:03.883Z,77.30
2023-02-14T20:18:31.870Z,77.50
2023-02-14T20:21:05.969Z,77.70
2023-02-14T20:23:34.589Z,77.80
2023-02-14T20:26:02.428Z,78.00
2023-02-14T20:28:32.195Z,78.20
2023-02-14T20:31:00.426Z,78.40
2023-02-14T20:33:28.407Z,78.10
2023-02-14T20:35:56.346Z,78.00
2023-02-14T20:38:24.272Z,77.80
2023-02-14T20:40:52.464Z,78.20
2023-02-14T20:43:20.289Z,78.30
2023-02-14T20:45:49.561Z,78.20
2023-02-14T20:48:17.498Z,78.30
2023-02-14T20:50:45.605Z,78.30
2023-02-14T20:53:15.559Z,78.30
2023-02-14T20:55:44.634Z,78.20
2023-02-14T20:58:12.885Z,78.20
2023-02-14T21:00:41.184Z,78.10
2023-02-14T21:03:10.352Z,78.30
2023-02-14T21:05:38.193Z,78.60
2023-02-14T21:08:09.510Z,78.50
2023-02-14T21:10:37.789Z,78.20
2023-02-14T21:13:06.274Z,78.90
2023-02-14T21:15:34.472Z,78.20
2023-02-14T21:18:02.309Z,78.80
2023-02-14T21:20:31.572Z,78.80
2023-02-14T21:22:59.358Z,78.50
2023-02-14T21:25:27.215Z,78.30
2023-02-14T21:27:55.245Z,78.40
2023-02-14T21:30:23.075Z,78.60
2023-02-14T21:32:51.378Z,78.70
2023-02-14T21:35:19.320Z,78.60
2023-02-14T21:37:48.513Z,78.80
2023-02-14T21:40:16.810Z,78.50
2023-02-14T21:42:44.769Z,78.60
2023-02-14T21:45:31.449Z,78.50
2023-02-14T21:48:13.782Z,78.80
2023-02-14T21:50:41.892Z,78.80
2023-02-14T21:53:11.068Z,78.50
2023-02-14T21:55:42.581Z,78.90
2023-02-14T21:58:10.430Z,78.50
2023-02-14T22:00:38.317Z,78.50
2023-02-14T22:03:11.653Z,78.50
2023-02-14T22:05:40.149Z,78.70
2023-02-14T22:08:07.986Z,78.60
2023-02-14T22:10:39.850Z,78.70
2023-02-14T22:13:08.250Z,78.60
2023-02-14T22:15:39.980Z,78.70
2023-02-14T22:18:07.863Z,78.60
2023-02-14T22:20:35.675Z,78.50
2023-02-14T22:23:03.809Z,78.30
2023-02-14T22:25:31.673Z,78.50
2023-02-14T22:28:00.960Z,78.80
2023-02-14T22:30:29.016Z,78.50
2023-02-14T22:32:57.080Z,78.60
2023-02-14T22:35:24.984Z,78.80
2023-02-14T22:37:52.849Z,78.40
2023-02-14T22:40:21.192Z,78.90
2023-02-14T22:42:48.982Z,79.00
2023-02-14T22:45:18.352Z,79.10
2023-02-14T22:47:46.734Z,79.00
2023-02-14T22:50:14.838Z,78.40
2023-02-14T22:52:42.701Z,78.90
2023-02-14T22:55:10.948Z,79.00
2023-02-14T22:57:38.744Z,78.90
2023-02-14T23:00:11.509Z,78.90
2023-02-14T23:02:40.817Z,79.10
2023-02-14T23:05:08.980Z,79.00
2023-02-14T23:07:36.838Z,78.90
2023-02-14T23:10:04.881Z,78.70
2023-02-14T23:12:50.465Z,78.70
2023-02-14T23:15:36.017Z,78.90
2023-02-14T23:18:23.135Z,78.80
2023-02-14T23:21:13.769Z,78.60
2023-02-14T23:23:41.754Z,78.60
2023-02-14T23:26:09.575Z,78.70
2023-02-14T23:28:37.621Z,78.60
2023-02-14T23:31:05.967Z,78.70
2023-02-14T23:33:35.153Z,78.70
2023-02-14T23:36:04.766Z,78.90
2023-02-14T23:38:32.783Z,78.80
2023-02-14T23:41:27.155Z,78.60
2023-02-14T23:43:55.077Z,78.90
2023-02-14T23:46:25.534Z,78.80
2023-02-14T23:48:54.702Z,79.10
2023-02-14T23:51:22.957Z,79.20
2023-02-14T23:53:51.222Z,79.20
2023-02-14T23:56:19.085Z,79.50
2023-02-14T23:58:49.620Z,79.50
